sensor_id;sensor_type;location;lat;lon;timestamp;temperature;humidity
24410;DHT22;12543;53.364;-1.504;2023-06-04T00:02:21;13.10;66.80
24410;DHT22;12543;53.364;-1.504;2023-06-04T00:04:48;13.10;66.80
24410;DHT22;12543;53.364;-1.504;2023-06-04T00:07:15;13.10;67.30
24410;DHT22;12543;53.364;-1.504;2023-06-04T00:09:43;13.00;67.10
24410;DHT22;12543;53.364;-1.504;2023-06-04T00:12:12;13.00;67.10
24410;DHT22;12543;53.364;-1.504;2023-06-04T00:14:39;13.00;67.30
24410;DHT22;12543;53.364;-1.504;2023-06-04T00:17:07;13.00;67.50
24410;DHT22;12543;53.364;-1.504;2023-06-04T00:19:35;12.90;67.30
24410;DHT22;12543;53.364;-1.504;2023-06-04T00:22:02;12.90;67.20
24410;DHT22;12543;53.364;-1.504;2023-06-04T00:24:29;12.90;67.40
24410;DHT22;12543;53.364;-1.504;2023-06-04T00:26:56;12.90;67.50
24410;DHT22;12543;53.364;-1.504;2023-06-04T00:29:24;12.90;67.90
24410;DHT22;12543;53.364;-1.504;2023-06-04T00:31:51;12.80;67.60
24410;DHT22;12543;53.364;-1.504;2023-06-04T00:34:18;12.80;67.70
24410;DHT22;12543;53.364;-1.504;2023-06-04T00:36:45;12.80;67.70
24410;DHT22;12543;53.364;-1.504;2023-06-04T00:39:13;12.70;67.90
24410;DHT22;12543;53.364;-1.504;2023-06-04T00:41:40;12.70;68.30
24410;DHT22;12543;53.364;-1.504;2023-06-04T00:44:07;12.70;68.50
24410;DHT22;12543;53.364;-1.504;2023-06-04T00:46:35;12.70;68.60
24410;DHT22;12543;53.364;-1.504;2023-06-04T00:49:05;12.70;70.30
24410;DHT22;12543;53.364;-1.504;2023-06-04T00:51:33;12.60;68.90
24410;DHT22;12543;53.364;-1.504;2023-06-04T00:54:02;12.60;68.80
24410;DHT22;12543;53.364;-1.504;2023-06-04T00:56:36;12.60;69.20
24410;DHT22;12543;53.364;-1.504;2023-06-04T00:59:05;12.50;69.50
24410;DHT22;12543;53.364;-1.504;2023-06-04T01:04:26;12.50;71.30
24410;DHT22;12543;53.364;-1.504;2023-06-04T01:06:56;12.40;71.90
24410;DHT22;12543;53.364;-1.504;2023-06-04T01:09:26;12.40;71.00
24410;DHT22;12543;53.364;-1.504;2023-06-04T01:11:55;12.30;70.80
24410;DHT22;12543;53.364;-1.504;2023-06-04T01:14:25;12.30;70.40
24410;DHT22;12543;53.364;-1.504;2023-06-04T01:17:01;12.30;69.90
24410;DHT22;12543;53.364;-1.504;2023-06-04T01:25:03;12.30;70.10
24410;DHT22;12543;53.364;-1.504;2023-06-04T01:27:31;12.20;69.80
24410;DHT22;12543;53.364;-1.504;2023-06-04T01:29:59;12.20;69.80
24410;DHT22;12543;53.364;-1.504;2023-06-04T01:32:27;12.20;70.10
24410;DHT22;12543;53.364;-1.504;2023-06-04T01:34:55;12.20;70.10
24410;DHT22;12543;53.364;-1.504;2023-06-04T01:37:22;12.20;70.30
24410;DHT22;12543;53.364;-1.504;2023-06-04T01:39:49;12.20;70.10
24410;DHT22;12543;53.364;-1.504;2023-06-04T01:42:17;12.10;70.20
24410;DHT22;12543;53.364;-1.504;2023-06-04T01:44:44;12.10;70.00
24410;DHT22;12543;53.364;-1.504;2023-06-04T01:47:11;12.10;70.30
24410;DHT22;12543;53.364;-1.504;2023-06-04T01:49:38;12.10;70.10
24410;DHT22;12543;53.364;-1.504;2023-06-04T01:52:07;12.10;71.40
24410;DHT22;12543;53.364;-1.504;2023-06-04T01:54:34;12.20;73.10
24410;DHT22;12543;53.364;-1.504;2023-06-04T01:57:02;12.20;72.00
24410;DHT22;12543;53.364;-1.504;2023-06-04T01:59:30;12.10;72.00
24410;DHT22;12543;53.364;-1.504;2023-06-04T02:01:58;12.20;72.80
24410;DHT22;12543;53.364;-1.504;2023-06-04T02:04:25;12.20;76.40
24410;DHT22;12543;53.364;-1.504;2023-06-04T02:06:55;12.20;72.90
24410;DHT22;12543;53.364;-1.504;2023-06-04T02:09:26;12.20;72.80
24410;DHT22;12543;53.364;-1.504;2023-06-04T02:11:54;12.20;72.30
24410;DHT22;12543;53.364;-1.504;2023-06-04T02:14:21;12.20;73.50
24410;DHT22;12543;53.364;-1.504;2023-06-04T02:16:48;12.20;73.90
24410;DHT22;12543;53.364;-1.504;2023-06-04T02:19:17;12.20;73.60
24410;DHT22;12543;53.364;-1.504;2023-06-04T02:21:45;12.20;72.40
24410;DHT22;12543;53.364;-1.504;2023-06-04T02:24:12;12.20;72.20
24410;DHT22;12543;53.364;-1.504;2023-06-04T02:26:41;12.20;71.80
24410;DHT22;12543;53.364;-1.504;2023-06-04T02:29:08;12.20;72.10
24410;DHT22;12543;53.364;-1.504;2023-06-04T02:31:35;12.20;72.50
24410;DHT22;12543;53.364;-1.504;2023-06-04T02:34:03;12.20;71.80
24410;DHT22;12543;53.364;-1.504;2023-06-04T02:36:30;12.20;71.80
24410;DHT22;12543;53.364;-1.504;2023-06-04T02:38:57;12.20;71.70
24410;DHT22;12543;53.364;-1.504;2023-06-04T02:41:24;12.20;71.80
24410;DHT22;12543;53.364;-1.504;2023-06-04T02:43:52;12.20;71.80
24410;DHT22;12543;53.364;-1.504;2023-06-04T02:46:19;12.10;72.00
24410;DHT22;12543;53.364;-1.504;2023-06-04T02:48:46;12.10;71.90
24410;DHT22;12543;53.364;-1.504;2023-06-04T02:51:13;12.10;71.60
24410;DHT22;12543;53.364;-1.504;2023-06-04T02:53:40;12.10;71.90
24410;DHT22;12543;53.364;-1.504;2023-06-04T02:56:08;12.10;71.90
24410;DHT22;12543;53.364;-1.504;2023-06-04T02:58:35;12.10;72.00
24410;DHT22;12543;53.364;-1.504;2023-06-04T03:01:06;12.10;72.80
24410;DHT22;12543;53.364;-1.504;2023-06-04T03:03:35;12.10;73.10
24410;DHT22;12543;53.364;-1.504;2023-06-04T03:06:02;12.10;73.00
24410;DHT22;12543;53.364;-1.504;2023-06-04T03:08:31;12.00;73.70
24410;DHT22;12543;53.364;-1.504;2023-06-04T03:10:58;12.00;73.00
24410;DHT22;12543;53.364;-1.504;2023-06-04T03:13:25;12.00;72.90
24410;DHT22;12543;53.364;-1.504;2023-06-04T03:15:53;12.00;72.90
24410;DHT22;12543;53.364;-1.504;2023-06-04T03:18:22;12.00;74.40
24410;DHT22;12543;53.364;-1.504;2023-06-04T03:20:49;12.00;75.90
24410;DHT22;12543;53.364;-1.504;2023-06-04T03:23:16;12.10;74.00
24410;DHT22;12543;53.364;-1.504;2023-06-04T03:25:44;12.10;73.90
24410;DHT22;12543;53.364;-1.504;2023-06-04T03:28:11;12.10;74.60
24410;DHT22;12543;53.364;-1.504;2023-06-04T03:30:58;12.10;73.50
24410;DHT22;12543;53.364;-1.504;2023-06-04T03:33:26;12.10;73.80
24410;DHT22;12543;53.364;-1.504;2023-06-04T03:35:53;12.10;73.90
24410;DHT22;12543;53.364;-1.504;2023-06-04T03:38:25;12.10;74.60
24410;DHT22;12543;53.364;-1.504;2023-06-04T03:40:52;12.20;73.80
24410;DHT22;12543;53.364;-1.504;2023-06-04T03:43:20;12.20;76.10
24410;DHT22;12543;53.364;-1.504;2023-06-04T03:45:51;12.20;75.50
24410;DHT22;12543;53.364;-1.504;2023-06-04T03:48:18;12.30;75.00
24410;DHT22;12543;53.364;-1.504;2023-06-04T03:50:47;12.30;74.30
24410;DHT22;12543;53.364;-1.504;2023-06-04T03:53:15;12.30;74.60
24410;DHT22;12543;53.364;-1.504;2023-06-04T03:55:42;12.30;75.60
24410;DHT22;12543;53.364;-1.504;2023-06-04T03:58:12;12.40;74.40
24410;DHT22;12543;53.364;-1.504;2023-06-04T04:00:45;12.40;74.30
24410;DHT22;12543;53.364;-1.504;2023-06-04T04:03:12;12.40;74.50
24410;DHT22;12543;53.364;-1.504;2023-06-04T04:05:40;12.30;74.30
24410;DHT22;12543;53.364;-1.504;2023-06-04T04:08:07;12.40;74.60
24410;DHT22;12543;53.364;-1.504;2023-06-04T04:10:36;12.40;74.50
24410;DHT22;12543;53.364;-1.504;2023-06-04T04:13:04;12.40;74.90
24410;DHT22;12543;53.364;-1.504;2023-06-04T04:15:34;12.40;74.70
24410;DHT22;12543;53.364;-1.504;2023-06-04T04:18:03;12.40;74.80
24410;DHT22;12543;53.364;-1.504;2023-06-04T04:20:31;12.40;75.40
24410;DHT22;12543;53.364;-1.504;2023-06-04T04:23:03;12.40;74.90
24410;DHT22;12543;53.364;-1.504;2023-06-04T04:25:31;12.40;75.20
24410;DHT22;12543;53.364;-1.504;2023-06-04T04:28:01;12.40;74.80
24410;DHT22;12543;53.364;-1.504;2023-06-04T04:30:29;12.40;75.30
24410;DHT22;12543;53.364;-1.504;2023-06-04T04:33:03;12.40;75.40
24410;DHT22;12543;53.364;-1.504;2023-06-04T04:35:39;12.40;75.30
24410;DHT22;12543;53.364;-1.504;2023-06-04T04:38:09;12.40;75.60
24410;DHT22;12543;53.364;-1.504;2023-06-04T04:40:43;12.40;77.00
24410;DHT22;12543;53.364;-1.504;2023-06-04T04:43:13;12.40;75.70
24410;DHT22;12543;53.364;-1.504;2023-06-04T04:45:40;12.40;75.80
24410;DHT22;12543;53.364;-1.504;2023-06-04T04:48:09;12.40;75.60
24410;DHT22;12543;53.364;-1.504;2023-06-04T04:50:37;12.40;76.10
24410;DHT22;12543;53.364;-1.504;2023-06-04T04:53:05;12.40;75.50
24410;DHT22;12543;53.364;-1.504;2023-06-04T04:55:34;12.40;77.80
24410;DHT22;12543;53.364;-1.504;2023-06-04T04:58:01;12.40;75.60
24410;DHT22;12543;53.364;-1.504;2023-06-04T05:00:29;12.50;75.60
24410;DHT22;12543;53.364;-1.504;2023-06-04T05:02:57;12.50;76.00
24410;DHT22;12543;53.364;-1.504;2023-06-04T05:05:24;12.40;75.90
24410;DHT22;12543;53.364;-1.504;2023-06-04T05:07:52;12.50;76.60
24410;DHT22;12543;53.364;-1.504;2023-06-04T05:10:23;12.50;76.40
24410;DHT22;12543;53.364;-1.504;2023-06-04T05:12:52;12.50;79.00
24410;DHT22;12543;53.364;-1.504;2023-06-04T05:15:20;12.50;77.30
24410;DHT22;12543;53.364;-1.504;2023-06-04T05:17:49;12.50;77.80
24410;DHT22;12543;53.364;-1.504;2023-06-04T05:20:20;12.50;76.70
24410;DHT22;12543;53.364;-1.504;2023-06-04T05:22:48;12.50;77.40
24410;DHT22;12543;53.364;-1.504;2023-06-04T05:25:16;12.50;77.00
24410;DHT22;12543;53.364;-1.504;2023-06-04T05:27:44;12.60;81.80
24410;DHT22;12543;53.364;-1.504;2023-06-04T05:30:12;12.50;77.00
24410;DHT22;12543;53.364;-1.504;2023-06-04T05:32:41;12.50;78.60
24410;DHT22;12543;53.364;-1.504;2023-06-04T05:35:12;12.60;76.80
24410;DHT22;12543;53.364;-1.504;2023-06-04T05:37:41;12.60;77.40
24410;DHT22;12543;53.364;-1.504;2023-06-04T05:40:09;12.60;78.00
24410;DHT22;12543;53.364;-1.504;2023-06-04T05:42:38;12.60;77.50
24410;DHT22;12543;53.364;-1.504;2023-06-04T05:45:07;12.60;77.40
24410;DHT22;12543;53.364;-1.504;2023-06-04T05:47:36;12.60;77.50
24410;DHT22;12543;53.364;-1.504;2023-06-04T05:50:04;12.60;77.80
24410;DHT22;12543;53.364;-1.504;2023-06-04T05:52:33;12.70;78.70
24410;DHT22;12543;53.364;-1.504;2023-06-04T05:55:01;12.70;78.30
24410;DHT22;12543;53.364;-1.504;2023-06-04T05:57:28;12.70;79.50
24410;DHT22;12543;53.364;-1.504;2023-06-04T05:59:56;12.70;79.00
24410;DHT22;12543;53.364;-1.504;2023-06-04T06:02:23;12.70;78.40
24410;DHT22;12543;53.364;-1.504;2023-06-04T06:04:51;12.80;78.20
24410;DHT22;12543;53.364;-1.504;2023-06-04T06:07:18;12.80;78.90
24410;DHT22;12543;53.364;-1.504;2023-06-04T06:09:46;12.80;79.10
24410;DHT22;12543;53.364;-1.504;2023-06-04T06:12:13;12.80;79.20
24410;DHT22;12543;53.364;-1.504;2023-06-04T06:14:42;12.80;78.50
24410;DHT22;12543;53.364;-1.504;2023-06-04T06:17:09;12.80;78.60
24410;DHT22;12543;53.364;-1.504;2023-06-04T06:19:37;12.90;78.90
24410;DHT22;12543;53.364;-1.504;2023-06-04T06:22:04;12.90;79.10
24410;DHT22;12543;53.364;-1.504;2023-06-04T06:24:32;12.90;79.50
24410;DHT22;12543;53.364;-1.504;2023-06-04T06:26:59;12.90;79.10
24410;DHT22;12543;53.364;-1.504;2023-06-04T06:29:27;12.90;79.70
24410;DHT22;12543;53.364;-1.504;2023-06-04T06:31:54;13.00;80.70
24410;DHT22;12543;53.364;-1.504;2023-06-04T06:34:22;13.00;79.80
24410;DHT22;12543;53.364;-1.504;2023-06-04T06:36:52;13.10;80.30
24410;DHT22;12543;53.364;-1.504;2023-06-04T06:39:19;13.10;80.60
24410;DHT22;12543;53.364;-1.504;2023-06-04T06:41:47;13.10;80.50
24410;DHT22;12543;53.364;-1.504;2023-06-04T06:44:19;13.20;80.30
24410;DHT22;12543;53.364;-1.504;2023-06-04T06:46:46;13.20;81.00
24410;DHT22;12543;53.364;-1.504;2023-06-04T06:49:16;13.30;81.60
24410;DHT22;12543;53.364;-1.504;2023-06-04T06:51:43;13.30;80.90
24410;DHT22;12543;53.364;-1.504;2023-06-04T06:54:10;13.40;81.20
24410;DHT22;12543;53.364;-1.504;2023-06-04T06:56:37;13.40;80.90
24410;DHT22;12543;53.364;-1.504;2023-06-04T06:59:04;13.50;81.20
24410;DHT22;12543;53.364;-1.504;2023-06-04T07:01:31;13.50;81.20
24410;DHT22;12543;53.364;-1.504;2023-06-04T07:04:00;13.50;81.00
24410;DHT22;12543;53.364;-1.504;2023-06-04T07:06:27;13.50;81.00
24410;DHT22;12543;53.364;-1.504;2023-06-04T07:08:54;13.60;80.60
24410;DHT22;12543;53.364;-1.504;2023-06-04T07:11:22;13.50;80.40
